Taraghin, Libya
Current Conditions -  °F | °C
As of 2:00 PM on Friday 31 Oct 2014 (Local Time) from DAUZ Reporting Station
Sand / Dust Storm Sand / Dust Storm  
Wind Chill: 75°   Ceiling: 8000
Heat Index: 75°   Visibility: 2.1mi
Dew Point: 50°   Wind: 22mph
Humidity: 41%   Direction: 50°NE
Pressure: 30.03"   Gusts: NA
Location:  25.98°N, 14.43°E
Report Text: DAUZ 311100Z 05019KT 3500 DRSA FEW040 BKN080 24/10 Q1017
Loading
Personal Weather Stations






























Interactive Weather Map
Tropical Storm Tracking
New forecast layout! Learn more

10-Day Weather Forecast

Advertisements
Track Severe Weather on mobile